sensor_id;sensor_type;location;lat;lon;timestamp;P1;durP1;ratioP1;P2;durP2;ratioP2
6983;SDS011;3532;51.118;7.210;2023-07-16T00:02:19;2.73;;;2.53;;
6983;SDS011;3532;51.118;7.210;2023-07-16T00:04:44;4.27;;;2.70;;
6983;SDS011;3532;51.118;7.210;2023-07-16T00:07:09;4.07;;;2.50;;
6983;SDS011;3532;51.118;7.210;2023-07-16T00:09:35;3.17;;;2.40;;
6983;SDS011;3532;51.118;7.210;2023-07-16T00:12:01;3.73;;;2.77;;
6983;SDS011;3532;51.118;7.210;2023-07-16T00:14:26;3.43;;;2.67;;
6983;SDS011;3532;51.118;7.210;2023-07-16T00:16:52;4.30;;;2.80;;
6983;SDS011;3532;51.118;7.210;2023-07-16T00:19:17;3.50;;;2.77;;
6983;SDS011;3532;51.118;7.210;2023-07-16T00:21:42;3.00;;;2.57;;
6983;SDS011;3532;51.118;7.210;2023-07-16T00:24:08;2.77;;;2.43;;
6983;SDS011;3532;51.118;7.210;2023-07-16T00:26:33;4.47;;;2.40;;
6983;SDS011;3532;51.118;7.210;2023-07-16T00:28:58;4.87;;;2.53;;
6983;SDS011;3532;51.118;7.210;2023-07-16T00:31:23;2.80;;;2.50;;
6983;SDS011;3532;51.118;7.210;2023-07-16T00:33:49;3.10;;;2.50;;
6983;SDS011;3532;51.118;7.210;2023-07-16T00:36:14;3.33;;;2.60;;
6983;SDS011;3532;51.118;7.210;2023-07-16T00:38:40;3.50;;;2.70;;
6983;SDS011;3532;51.118;7.210;2023-07-16T00:41:06;4.23;;;2.60;;
6983;SDS011;3532;51.118;7.210;2023-07-16T00:43:31;5.43;;;2.40;;
6983;SDS011;3532;51.118;7.210;2023-07-16T00:45:57;4.33;;;2.50;;
6983;SDS011;3532;51.118;7.210;2023-07-16T00:48:22;6.80;;;2.73;;
6983;SDS011;3532;51.118;7.210;2023-07-16T00:50:49;4.43;;;2.67;;
6983;SDS011;3532;51.118;7.210;2023-07-16T00:53:16;3.73;;;2.83;;
6983;SDS011;3532;51.118;7.210;2023-07-16T00:55:41;3.40;;;2.37;;
6983;SDS011;3532;51.118;7.210;2023-07-16T00:58:07;3.23;;;2.30;;
6983;SDS011;3532;51.118;7.210;2023-07-16T01:00:33;7.07;;;2.13;;
6983;SDS011;3532;51.118;7.210;2023-07-16T01:02:58;3.03;;;2.70;;
6983;SDS011;3532;51.118;7.210;2023-07-16T01:05:25;4.53;;;2.73;;
6983;SDS011;3532;51.118;7.210;2023-07-16T01:07:54;2.73;;;2.37;;
6983;SDS011;3532;51.118;7.210;2023-07-16T01:10:22;3.53;;;2.20;;
6983;SDS011;3532;51.118;7.210;2023-07-16T01:12:48;5.03;;;2.60;;
6983;SDS011;3532;51.118;7.210;2023-07-16T01:15:14;3.57;;;2.50;;
6983;SDS011;3532;51.118;7.210;2023-07-16T01:17:40;3.03;;;2.60;;
6983;SDS011;3532;51.118;7.210;2023-07-16T01:20:05;4.63;;;2.70;;
6983;SDS011;3532;51.118;7.210;2023-07-16T01:22:35;4.37;;;2.57;;
6983;SDS011;3532;51.118;7.210;2023-07-16T01:25:31;3.10;;;2.37;;
6983;SDS011;3532;51.118;7.210;2023-07-16T01:30:52;4.40;;;2.47;;
6983;SDS011;3532;51.118;7.210;2023-07-16T01:33:19;3.70;;;2.57;;
6983;SDS011;3532;51.118;7.210;2023-07-16T01:35:45;3.23;;;2.37;;
6983;SDS011;3532;51.118;7.210;2023-07-16T01:38:12;6.17;;;2.63;;
6983;SDS011;3532;51.118;7.210;2023-07-16T01:40:37;7.80;;;2.83;;
6983;SDS011;3532;51.118;7.210;2023-07-16T01:43:03;5.13;;;2.47;;
6983;SDS011;3532;51.118;7.210;2023-07-16T01:45:29;4.60;;;2.13;;
6983;SDS011;3532;51.118;7.210;2023-07-16T01:50:39;3.67;;;2.77;;
6983;SDS011;3532;51.118;7.210;2023-07-16T01:53:04;4.17;;;2.40;;
6983;SDS011;3532;51.118;7.210;2023-07-16T01:55:29;4.53;;;2.80;;
6983;SDS011;3532;51.118;7.210;2023-07-16T01:57:55;6.13;;;2.93;;
6983;SDS011;3532;51.118;7.210;2023-07-16T02:00:20;3.27;;;2.37;;
6983;SDS011;3532;51.118;7.210;2023-07-16T02:02:46;5.70;;;2.63;;
6983;SDS011;3532;51.118;7.210;2023-07-16T02:05:11;3.73;;;2.33;;
6983;SDS011;3532;51.118;7.210;2023-07-16T02:07:37;3.83;;;2.43;;
6983;SDS011;3532;51.118;7.210;2023-07-16T02:10:02;3.73;;;2.33;;
6983;SDS011;3532;51.118;7.210;2023-07-16T02:12:27;3.77;;;2.23;;
6983;SDS011;3532;51.118;7.210;2023-07-16T02:14:53;3.87;;;2.57;;
6983;SDS011;3532;51.118;7.210;2023-07-16T02:17:18;4.53;;;2.17;;
6983;SDS011;3532;51.118;7.210;2023-07-16T02:19:43;3.03;;;2.50;;
6983;SDS011;3532;51.118;7.210;2023-07-16T02:22:09;4.87;;;2.43;;
6983;SDS011;3532;51.118;7.210;2023-07-16T02:24:34;3.13;;;2.43;;
6983;SDS011;3532;51.118;7.210;2023-07-16T02:27:00;2.50;;;2.30;;
6983;SDS011;3532;51.118;7.210;2023-07-16T02:29:25;3.83;;;2.53;;
6983;SDS011;3532;51.118;7.210;2023-07-16T02:31:51;5.17;;;2.50;;
6983;SDS011;3532;51.118;7.210;2023-07-16T02:34:16;4.83;;;2.60;;
6983;SDS011;3532;51.118;7.210;2023-07-16T02:36:41;2.73;;;2.53;;
6983;SDS011;3532;51.118;7.210;2023-07-16T02:39:07;4.70;;;2.47;;
6983;SDS011;3532;51.118;7.210;2023-07-16T02:41:32;4.07;;;2.60;;
6983;SDS011;3532;51.118;7.210;2023-07-16T02:44:01;2.43;;;2.20;;
6983;SDS011;3532;51.118;7.210;2023-07-16T02:46:28;3.17;;;2.40;;
6983;SDS011;3532;51.118;7.210;2023-07-16T02:48:53;4.47;;;2.70;;
6983;SDS011;3532;51.118;7.210;2023-07-16T02:51:19;3.23;;;2.37;;
6983;SDS011;3532;51.118;7.210;2023-07-16T02:53:44;5.80;;;2.20;;
6983;SDS011;3532;51.118;7.210;2023-07-16T02:56:09;2.43;;;2.10;;
6983;SDS011;3532;51.118;7.210;2023-07-16T02:58:34;2.73;;;2.43;;
6983;SDS011;3532;51.118;7.210;2023-07-16T03:01:00;2.80;;;2.43;;
6983;SDS011;3532;51.118;7.210;2023-07-16T03:03:25;3.90;;;2.90;;
6983;SDS011;3532;51.118;7.210;2023-07-16T03:05:50;5.03;;;2.17;;
6983;SDS011;3532;51.118;7.210;2023-07-16T03:08:16;4.13;;;2.30;;
6983;SDS011;3532;51.118;7.210;2023-07-16T03:10:41;3.00;;;2.10;;
6983;SDS011;3532;51.118;7.210;2023-07-16T03:13:06;2.67;;;2.27;;
6983;SDS011;3532;51.118;7.210;2023-07-16T03:15:32;5.57;;;2.70;;
6983;SDS011;3532;51.118;7.210;2023-07-16T03:17:57;2.80;;;2.47;;
6983;SDS011;3532;51.118;7.210;2023-07-16T03:20:22;5.70;;;2.80;;
6983;SDS011;3532;51.118;7.210;2023-07-16T03:22:48;3.83;;;2.30;;
6983;SDS011;3532;51.118;7.210;2023-07-16T03:25:13;3.63;;;2.50;;
6983;SDS011;3532;51.118;7.210;2023-07-16T03:27:41;3.13;;;2.60;;
6983;SDS011;3532;51.118;7.210;2023-07-16T03:30:07;3.97;;;2.37;;
6983;SDS011;3532;51.118;7.210;2023-07-16T03:32:32;3.13;;;2.27;;
6983;SDS011;3532;51.118;7.210;2023-07-16T03:34:58;3.50;;;2.60;;
6983;SDS011;3532;51.118;7.210;2023-07-16T03:37:23;4.03;;;2.53;;
6983;SDS011;3532;51.118;7.210;2023-07-16T03:39:48;4.57;;;2.50;;
6983;SDS011;3532;51.118;7.210;2023-07-16T03:42:14;6.03;;;2.40;;
6983;SDS011;3532;51.118;7.210;2023-07-16T03:44:39;3.33;;;2.63;;
6983;SDS011;3532;51.118;7.210;2023-07-16T03:47:04;3.53;;;2.30;;
6983;SDS011;3532;51.118;7.210;2023-07-16T03:49:30;5.00;;;2.93;;
6983;SDS011;3532;51.118;7.210;2023-07-16T03:51:55;3.37;;;2.60;;
6983;SDS011;3532;51.118;7.210;2023-07-16T03:54:20;3.60;;;2.40;;
6983;SDS011;3532;51.118;7.210;2023-07-16T03:56:46;3.93;;;2.80;;
6983;SDS011;3532;51.118;7.210;2023-07-16T03:59:11;2.83;;;2.43;;
6983;SDS011;3532;51.118;7.210;2023-07-16T04:01:36;4.90;;;2.40;;
6983;SDS011;3532;51.118;7.210;2023-07-16T04:04:01;4.30;;;2.80;;
6983;SDS011;3532;51.118;7.210;2023-07-16T04:06:27;4.23;;;2.43;;
6983;SDS011;3532;51.118;7.210;2023-07-16T04:08:52;4.40;;;2.47;;
6983;SDS011;3532;51.118;7.210;2023-07-16T04:11:17;4.57;;;2.50;;
6983;SDS011;3532;51.118;7.210;2023-07-16T04:13:43;3.40;;;2.37;;
6983;SDS011;3532;51.118;7.210;2023-07-16T04:16:08;4.83;;;2.80;;
6983;SDS011;3532;51.118;7.210;2023-07-16T04:18:33;6.47;;;3.30;;
6983;SDS011;3532;51.118;7.210;2023-07-16T04:20:59;6.50;;;2.70;;
6983;SDS011;3532;51.118;7.210;2023-07-16T04:23:24;5.70;;;2.67;;
6983;SDS011;3532;51.118;7.210;2023-07-16T04:25:53;3.30;;;3.00;;
6983;SDS011;3532;51.118;7.210;2023-07-16T04:28:20;3.63;;;2.60;;
6983;SDS011;3532;51.118;7.210;2023-07-16T04:30:45;4.37;;;3.00;;
6983;SDS011;3532;51.118;7.210;2023-07-16T04:33:10;5.23;;;2.70;;
6983;SDS011;3532;51.118;7.210;2023-07-16T04:35:36;4.37;;;2.40;;
6983;SDS011;3532;51.118;7.210;2023-07-16T04:38:01;4.00;;;2.40;;
6983;SDS011;3532;51.118;7.210;2023-07-16T04:40:28;4.80;;;2.43;;
6983;SDS011;3532;51.118;7.210;2023-07-16T04:42:54;5.17;;;2.70;;
6983;SDS011;3532;51.118;7.210;2023-07-16T04:45:19;4.70;;;2.83;;
6983;SDS011;3532;51.118;7.210;2023-07-16T04:47:45;3.50;;;2.40;;
6983;SDS011;3532;51.118;7.210;2023-07-16T04:50:10;4.63;;;2.80;;
6983;SDS011;3532;51.118;7.210;2023-07-16T04:52:35;6.43;;;3.47;;
6983;SDS011;3532;51.118;7.210;2023-07-16T04:55:00;3.70;;;2.63;;
6983;SDS011;3532;51.118;7.210;2023-07-16T04:57:26;4.57;;;2.93;;
6983;SDS011;3532;51.118;7.210;2023-07-16T04:59:51;7.23;;;3.10;;
6983;SDS011;3532;51.118;7.210;2023-07-16T05:02:17;2.77;;;2.50;;
6983;SDS011;3532;51.118;7.210;2023-07-16T05:04:42;5.53;;;3.47;;
6983;SDS011;3532;51.118;7.210;2023-07-16T05:07:09;5.03;;;3.37;;
6983;SDS011;3532;51.118;7.210;2023-07-16T05:09:34;6.87;;;2.93;;
6983;SDS011;3532;51.118;7.210;2023-07-16T05:12:00;5.10;;;2.73;;
6983;SDS011;3532;51.118;7.210;2023-07-16T05:14:25;4.17;;;3.07;;
6983;SDS011;3532;51.118;7.210;2023-07-16T05:16:51;9.13;;;2.93;;
6983;SDS011;3532;51.118;7.210;2023-07-16T05:19:17;5.20;;;2.90;;
6983;SDS011;3532;51.118;7.210;2023-07-16T05:21:42;4.27;;;2.47;;
6983;SDS011;3532;51.118;7.210;2023-07-16T05:24:07;5.80;;;3.40;;
6983;SDS011;3532;51.118;7.210;2023-07-16T05:26:33;4.77;;;3.07;;
6983;SDS011;3532;51.118;7.210;2023-07-16T05:28:58;5.63;;;3.07;;
6983;SDS011;3532;51.118;7.210;2023-07-16T05:31:23;5.03;;;3.13;;
6983;SDS011;3532;51.118;7.210;2023-07-16T05:33:49;5.87;;;3.37;;
6983;SDS011;3532;51.118;7.210;2023-07-16T05:36:14;4.40;;;3.20;;
6983;SDS011;3532;51.118;7.210;2023-07-16T05:38:39;5.90;;;3.30;;
6983;SDS011;3532;51.118;7.210;2023-07-16T05:41:05;4.80;;;3.23;;
6983;SDS011;3532;51.118;7.210;2023-07-16T05:43:31;6.10;;;3.60;;
6983;SDS011;3532;51.118;7.210;2023-07-16T05:45:56;5.50;;;3.43;;
6983;SDS011;3532;51.118;7.210;2023-07-16T05:48:23;5.37;;;3.17;;
6983;SDS011;3532;51.118;7.210;2023-07-16T05:50:49;5.80;;;3.80;;
6983;SDS011;3532;51.118;7.210;2023-07-16T05:53:14;7.90;;;3.13;;
6983;SDS011;3532;51.118;7.210;2023-07-16T05:55:39;4.53;;;3.27;;
6983;SDS011;3532;51.118;7.210;2023-07-16T05:58:05;6.63;;;3.73;;
6983;SDS011;3532;51.118;7.210;2023-07-16T06:00:30;4.07;;;2.70;;
6983;SDS011;3532;51.118;7.210;2023-07-16T06:02:55;6.60;;;3.37;;
6983;SDS011;3532;51.118;7.210;2023-07-16T06:05:21;5.63;;;3.27;;
6983;SDS011;3532;51.118;7.210;2023-07-16T06:07:46;6.70;;;3.47;;
6983;SDS011;3532;51.118;7.210;2023-07-16T06:10:12;5.07;;;3.97;;
6983;SDS011;3532;51.118;7.210;2023-07-16T06:12:37;10.53;;;3.60;;
6983;SDS011;3532;51.118;7.210;2023-07-16T06:15:03;6.50;;;3.63;;
6983;SDS011;3532;51.118;7.210;2023-07-16T06:17:28;6.60;;;3.63;;
6983;SDS011;3532;51.118;7.210;2023-07-16T06:19:53;6.60;;;3.73;;
6983;SDS011;3532;51.118;7.210;2023-07-16T06:22:19;9.13;;;4.37;;
6983;SDS011;3532;51.118;7.210;2023-07-16T06:24:44;9.70;;;3.80;;
6983;SDS011;3532;51.118;7.210;2023-07-16T06:27:09;6.13;;;4.03;;
6983;SDS011;3532;51.118;7.210;2023-07-16T06:29:35;8.90;;;3.97;;
6983;SDS011;3532;51.118;7.210;2023-07-16T06:32:00;4.87;;;3.73;;
6983;SDS011;3532;51.118;7.210;2023-07-16T06:34:25;6.87;;;4.37;;
6983;SDS011;3532;51.118;7.210;2023-07-16T06:36:51;10.33;;;4.33;;
6983;SDS011;3532;51.118;7.210;2023-07-16T06:39:16;5.93;;;4.23;;
6983;SDS011;3532;51.118;7.210;2023-07-16T06:41:41;7.40;;;4.63;;
6983;SDS011;3532;51.118;7.210;2023-07-16T06:44:07;8.87;;;4.23;;
6983;SDS011;3532;51.118;7.210;2023-07-16T06:46:32;10.13;;;4.63;;
6983;SDS011;3532;51.118;7.210;2023-07-16T06:48:58;8.17;;;5.03;;
6983;SDS011;3532;51.118;7.210;2023-07-16T06:51:23;5.23;;;4.17;;
6983;SDS011;3532;51.118;7.210;2023-07-16T06:53:48;9.97;;;4.83;;
6983;SDS011;3532;51.118;7.210;2023-07-16T06:56:14;6.80;;;5.10;;
6983;SDS011;3532;51.118;7.210;2023-07-16T06:58:39;7.33;;;5.03;;
6983;SDS011;3532;51.118;7.210;2023-07-16T07:01:04;9.50;;;4.90;;
6983;SDS011;3532;51.118;7.210;2023-07-16T07:03:30;7.97;;;4.67;;
6983;SDS011;3532;51.118;7.210;2023-07-16T07:05:55;8.30;;;4.97;;
6983;SDS011;3532;51.118;7.210;2023-07-16T07:08:21;7.77;;;4.73;;
6983;SDS011;3532;51.118;7.210;2023-07-16T07:10:48;5.90;;;4.60;;
6983;SDS011;3532;51.118;7.210;2023-07-16T07:13:13;5.83;;;4.53;;
6983;SDS011;3532;51.118;7.210;2023-07-16T07:15:39;7.43;;;5.07;;
6983;SDS011;3532;51.118;7.210;2023-07-16T07:18:04;7.40;;;4.83;;
6983;SDS011;3532;51.118;7.210;2023-07-16T07:20:30;7.37;;;4.77;;
6983;SDS011;3532;51.118;7.210;2023-07-16T07:22:55;10.70;;;5.13;;
6983;SDS011;3532;51.118;7.210;2023-07-16T07:25:20;5.27;;;4.70;;
6983;SDS011;3532;51.118;7.210;2023-07-16T07:27:46;7.83;;;4.37;;
6983;SDS011;3532;51.118;7.210;2023-07-16T07:30:11;6.03;;;4.23;;
6983;SDS011;3532;51.118;7.210;2023-07-16T07:32:37;6.97;;;4.33;;
6983;SDS011;3532;51.118;7.210;2023-07-16T07:35:03;7.67;;;5.00;;
6983;SDS011;3532;51.118;7.210;2023-07-16T07:37:29;6.87;;;4.67;;
6983;SDS011;3532;51.118;7.210;2023-07-16T07:39:54;7.93;;;5.00;;
6983;SDS011;3532;51.118;7.210;2023-07-16T07:42:19;6.93;;;4.20;;
6983;SDS011;3532;51.118;7.210;2023-07-16T07:44:45;8.17;;;4.87;;
6983;SDS011;3532;51.118;7.210;2023-07-16T07:47:10;7.87;;;5.57;;
6983;SDS011;3532;51.118;7.210;2023-07-16T07:49:35;9.00;;;4.20;;
6983;SDS011;3532;51.118;7.210;2023-07-16T07:52:01;5.73;;;4.70;;
6983;SDS011;3532;51.118;7.210;2023-07-16T07:54:26;6.63;;;4.13;;
6983;SDS011;3532;51.118;7.210;2023-07-16T07:56:51;5.70;;;4.60;;
6983;SDS011;3532;51.118;7.210;2023-07-16T07:59:17;7.80;;;5.00;;
6983;SDS011;3532;51.118;7.210;2023-07-16T08:01:42;8.37;;;4.90;;
6983;SDS011;3532;51.118;7.210;2023-07-16T08:04:07;6.63;;;4.80;;
6983;SDS011;3532;51.118;7.210;2023-07-16T08:06:33;10.93;;;5.40;;
6983;SDS011;3532;51.118;7.210;2023-07-16T08:08:58;6.67;;;4.40;;
6983;SDS011;3532;51.118;7.210;2023-07-16T08:11:23;6.40;;;5.00;;
6983;SDS011;3532;51.118;7.210;2023-07-16T08:13:49;7.40;;;4.90;;
6983;SDS011;3532;51.118;7.210;2023-07-16T08:16:14;6.50;;;4.63;;
6983;SDS011;3532;51.118;7.210;2023-07-16T08:18:39;6.80;;;4.53;;
6983;SDS011;3532;51.118;7.210;2023-07-16T08:21:05;6.53;;;4.03;;
6983;SDS011;3532;51.118;7.210;2023-07-16T08:23:30;6.57;;;4.27;;
6983;SDS011;3532;51.118;7.210;2023-07-16T08:25:55;5.77;;;4.30;;
6983;SDS011;3532;51.118;7.210;2023-07-16T08:28:21;5.97;;;4.53;;
6983;SDS011;3532;51.118;7.210;2023-07-16T08:30:47;10.13;;;4.50;;
6983;SDS011;3532;51.118;7.210;2023-07-16T08:33:13;7.87;;;4.57;;
6983;SDS011;3532;51.118;7.210;2023-07-16T08:35:39;9.17;;;4.80;;
6983;SDS011;3532;51.118;7.210;2023-07-16T08:38:05;7.73;;;5.60;;
6983;SDS011;3532;51.118;7.210;2023-07-16T08:40:34;7.33;;;5.27;;
6983;SDS011;3532;51.118;7.210;2023-07-16T08:43:00;5.93;;;4.43;;
6983;SDS011;3532;51.118;7.210;2023-07-16T08:45:25;7.20;;;4.73;;
6983;SDS011;3532;51.118;7.210;2023-07-16T08:47:53;6.07;;;4.50;;
6983;SDS011;3532;51.118;7.210;2023-07-16T08:50:19;5.70;;;4.83;;
6983;SDS011;3532;51.118;7.210;2023-07-16T08:52:46;5.53;;;4.67;;
6983;SDS011;3532;51.118;7.210;2023-07-16T08:55:12;5.73;;;4.97;;
6983;SDS011;3532;51.118;7.210;2023-07-16T08:57:38;6.67;;;5.17;;
6983;SDS011;3532;51.118;7.210;2023-07-16T09:00:05;7.37;;;4.77;;
6983;SDS011;3532;51.118;7.210;2023-07-16T09:02:31;6.77;;;4.50;;
6983;SDS011;3532;51.118;7.210;2023-07-16T09:04:56;5.00;;;4.37;;
6983;SDS011;3532;51.118;7.210;2023-07-16T09:07:21;7.13;;;4.50;;
6983;SDS011;3532;51.118;7.210;2023-07-16T09:09:56;6.80;;;4.90;;
6983;SDS011;3532;51.118;7.210;2023-07-16T09:12:25;6.53;;;4.60;;
6983;SDS011;3532;51.118;7.210;2023-07-16T09:14:51;6.50;;;5.27;;
6983;SDS011;3532;51.118;7.210;2023-07-16T09:17:20;6.13;;;4.80;;
6983;SDS011;3532;51.118;7.210;2023-07-16T09:19:49;8.30;;;5.10;;
6983;SDS011;3532;51.118;7.210;2023-07-16T09:22:18;7.20;;;4.43;;
6983;SDS011;3532;51.118;7.210;2023-07-16T09:24:44;5.83;;;4.67;;
6983;SDS011;3532;51.118;7.210;2023-07-16T09:27:11;6.63;;;5.07;;
6983;SDS011;3532;51.118;7.210;2023-07-16T09:29:37;7.13;;;4.43;;
6983;SDS011;3532;51.118;7.210;2023-07-16T09:32:03;7.40;;;5.17;;
6983;SDS011;3532;51.118;7.210;2023-07-16T09:34:30;5.63;;;4.60;;
6983;SDS011;3532;51.118;7.210;2023-07-16T09:36:56;5.10;;;4.60;;
6983;SDS011;3532;51.118;7.210;2023-07-16T09:39:22;7.77;;;4.07;;
6983;SDS011;3532;51.118;7.210;2023-07-16T09:41:48;6.40;;;4.57;;
6983;SDS011;3532;51.118;7.210;2023-07-16T09:44:14;5.77;;;4.43;;
6983;SDS011;3532;51.118;7.210;2023-07-16T09:46:40;4.60;;;3.63;;
6983;SDS011;3532;51.118;7.210;2023-07-16T09:49:06;4.30;;;3.87;;
6983;SDS011;3532;51.118;7.210;2023-07-16T09:51:32;5.80;;;3.93;;
6983;SDS011;3532;51.118;7.210;2023-07-16T09:54:00;5.40;;;4.53;;
6983;SDS011;3532;51.118;7.210;2023-07-16T09:56:26;5.40;;;4.17;;
6983;SDS011;3532;51.118;7.210;2023-07-16T09:58:57;5.03;;;4.10;;
6983;SDS011;3532;51.118;7.210;2023-07-16T10:01:23;4.50;;;3.70;;
6983;SDS011;3532;51.118;7.210;2023-07-16T10:03:49;4.93;;;3.87;;
6983;SDS011;3532;51.118;7.210;2023-07-16T10:06:15;5.23;;;3.97;;
6983;SDS011;3532;51.118;7.210;2023-07-16T10:08:48;5.77;;;4.03;;
6983;SDS011;3532;51.118;7.210;2023-07-16T10:11:18;4.43;;;4.00;;
6983;SDS011;3532;51.118;7.210;2023-07-16T10:13:48;4.43;;;3.90;;
6983;SDS011;3532;51.118;7.210;2023-07-16T10:16:21;3.80;;;3.40;;
6983;SDS011;3532;51.118;7.210;2023-07-16T10:18:50;7.30;;;3.60;;
6983;SDS011;3532;51.118;7.210;2023-07-16T10:21:22;5.23;;;3.83;;
6983;SDS011;3532;51.118;7.210;2023-07-16T10:23:56;6.27;;;3.90;;
6983;SDS011;3532;51.118;7.210;2023-07-16T10:26:28;4.17;;;3.63;;
6983;SDS011;3532;51.118;7.210;2023-07-16T10:28:54;4.53;;;4.07;;
6983;SDS011;3532;51.118;7.210;2023-07-16T10:31:23;6.00;;;3.50;;
6983;SDS011;3532;51.118;7.210;2023-07-16T10:34:22;6.90;;;3.37;;
6983;SDS011;3532;51.118;7.210;2023-07-16T10:36:41;5.43;;;3.70;;
6983;SDS011;3532;51.118;7.210;2023-07-16T10:39:06;5.50;;;3.80;;
6983;SDS011;3532;51.118;7.210;2023-07-16T10:41:32;3.80;;;3.03;;
6983;SDS011;3532;51.118;7.210;2023-07-16T10:44:00;5.00;;;3.63;;
6983;SDS011;3532;51.118;7.210;2023-07-16T10:46:25;5.97;;;3.20;;
6983;SDS011;3532;51.118;7.210;2023-07-16T10:48:51;4.43;;;3.50;;
6983;SDS011;3532;51.118;7.210;2023-07-16T10:51:17;4.60;;;3.90;;
6983;SDS011;3532;51.118;7.210;2023-07-16T10:53:42;4.97;;;3.87;;
6983;SDS011;3532;51.118;7.210;2023-07-16T10:56:08;4.60;;;3.50;;
6983;SDS011;3532;51.118;7.210;2023-07-16T10:58:35;5.03;;;3.50;;
6983;SDS011;3532;51.118;7.210;2023-07-16T11:01:01;4.83;;;3.43;;
6983;SDS011;3532;51.118;7.210;2023-07-16T11:03:27;5.30;;;3.33;;
6983;SDS011;3532;51.118;7.210;2023-07-16T11:05:52;4.40;;;3.83;;
6983;SDS011;3532;51.118;7.210;2023-07-16T11:08:21;6.50;;;4.03;;
6983;SDS011;3532;51.118;7.210;2023-07-16T11:10:52;4.87;;;4.03;;
6983;SDS011;3532;51.118;7.210;2023-07-16T11:13:19;5.90;;;3.60;;
6983;SDS011;3532;51.118;7.210;2023-07-16T11:15:45;6.80;;;4.00;;
6983;SDS011;3532;51.118;7.210;2023-07-16T11:18:10;5.00;;;3.90;;
6983;SDS011;3532;51.118;7.210;2023-07-16T11:20:35;4.53;;;3.40;;
6983;SDS011;3532;51.118;7.210;2023-07-16T11:23:01;5.40;;;3.60;;
6983;SDS011;3532;51.118;7.210;2023-07-16T11:25:26;6.13;;;3.53;;
6983;SDS011;3532;51.118;7.210;2023-07-16T11:27:54;4.73;;;3.70;;
6983;SDS011;3532;51.118;7.210;2023-07-16T11:30:24;4.50;;;3.83;;
6983;SDS011;3532;51.118;7.210;2023-07-16T11:32:49;5.10;;;3.70;;
6983;SDS011;3532;51.118;7.210;2023-07-16T11:35:18;5.47;;;3.60;;
6983;SDS011;3532;51.118;7.210;2023-07-16T11:37:45;5.23;;;3.67;;
6983;SDS011;3532;51.118;7.210;2023-07-16T11:40:11;4.10;;;3.70;;
6983;SDS011;3532;51.118;7.210;2023-07-16T11:42:40;4.90;;;4.07;;
6983;SDS011;3532;51.118;7.210;2023-07-16T11:45:16;5.43;;;3.40;;
6983;SDS011;3532;51.118;7.210;2023-07-16T11:47:41;4.90;;;3.30;;
6983;SDS011;3532;51.118;7.210;2023-07-16T11:50:07;5.07;;;3.27;;
6983;SDS011;3532;51.118;7.210;2023-07-16T11:52:33;3.90;;;3.30;;
6983;SDS011;3532;51.118;7.210;2023-07-16T11:54:58;4.33;;;3.87;;
6983;SDS011;3532;51.118;7.210;2023-07-16T11:57:29;6.60;;;4.13;;
6983;SDS011;3532;51.118;7.210;2023-07-16T11:59:54;7.07;;;4.10;;
6983;SDS011;3532;51.118;7.210;2023-07-16T12:02:20;6.27;;;4.33;;
6983;SDS011;3532;51.118;7.210;2023-07-16T12:04:46;6.70;;;4.47;;
6983;SDS011;3532;51.118;7.210;2023-07-16T12:07:11;6.57;;;4.53;;
6983;SDS011;3532;51.118;7.210;2023-07-16T12:09:36;5.43;;;3.93;;
6983;SDS011;3532;51.118;7.210;2023-07-16T12:12:02;4.20;;;3.57;;
6983;SDS011;3532;51.118;7.210;2023-07-16T12:14:27;4.10;;;3.70;;
6983;SDS011;3532;51.118;7.210;2023-07-16T12:16:53;4.67;;;4.17;;
6983;SDS011;3532;51.118;7.210;2023-07-16T12:19:18;5.07;;;4.00;;
6983;SDS011;3532;51.118;7.210;2023-07-16T12:21:44;4.77;;;3.67;;
6983;SDS011;3532;51.118;7.210;2023-07-16T12:24:09;4.10;;;3.47;;
6983;SDS011;3532;51.118;7.210;2023-07-16T12:26:35;5.37;;;3.77;;
6983;SDS011;3532;51.118;7.210;2023-07-16T12:29:00;3.90;;;3.57;;
6983;SDS011;3532;51.118;7.210;2023-07-16T12:31:32;5.00;;;3.77;;
6983;SDS011;3532;51.118;7.210;2023-07-16T12:33:57;5.10;;;3.90;;
6983;SDS011;3532;51.118;7.210;2023-07-16T12:36:24;7.77;;;4.17;;
6983;SDS011;3532;51.118;7.210;2023-07-16T12:38:49;4.63;;;3.93;;
6983;SDS011;3532;51.118;7.210;2023-07-16T12:41:14;5.20;;;3.97;;
6983;SDS011;3532;51.118;7.210;2023-07-16T12:43:40;6.37;;;3.53;;
6983;SDS011;3532;51.118;7.210;2023-07-16T12:46:05;5.40;;;4.23;;
6983;SDS011;3532;51.118;7.210;2023-07-16T12:48:31;4.97;;;3.63;;
6983;SDS011;3532;51.118;7.210;2023-07-16T12:50:57;4.83;;;4.13;;
6983;SDS011;3532;51.118;7.210;2023-07-16T12:53:23;7.00;;;3.73;;
6983;SDS011;3532;51.118;7.210;2023-07-16T12:55:48;6.27;;;3.70;;
6983;SDS011;3532;51.118;7.210;2023-07-16T12:58:14;5.60;;;4.10;;
6983;SDS011;3532;51.118;7.210;2023-07-16T13:00:39;4.67;;;3.60;;
6983;SDS011;3532;51.118;7.210;2023-07-16T13:03:04;4.07;;;3.53;;
6983;SDS011;3532;51.118;7.210;2023-07-16T13:05:30;3.53;;;3.23;;
6983;SDS011;3532;51.118;7.210;2023-07-16T13:07:55;4.13;;;3.47;;
6983;SDS011;3532;51.118;7.210;2023-07-16T13:10:21;5.37;;;3.67;;
6983;SDS011;3532;51.118;7.210;2023-07-16T13:12:46;3.53;;;3.23;;
6983;SDS011;3532;51.118;7.210;2023-07-16T13:15:11;4.20;;;3.80;;
6983;SDS011;3532;51.118;7.210;2023-07-16T13:17:37;7.07;;;3.90;;
6983;SDS011;3532;51.118;7.210;2023-07-16T13:20:02;4.33;;;3.93;;
6983;SDS011;3532;51.118;7.210;2023-07-16T13:22:30;4.20;;;3.47;;
6983;SDS011;3532;51.118;7.210;2023-07-16T13:24:55;3.63;;;3.33;;
6983;SDS011;3532;51.118;7.210;2023-07-16T13:27:21;4.13;;;3.20;;
6983;SDS011;3532;51.118;7.210;2023-07-16T13:29:47;8.33;;;3.97;;
6983;SDS011;3532;51.118;7.210;2023-07-16T13:32:12;5.20;;;3.67;;
6983;SDS011;3532;51.118;7.210;2023-07-16T13:34:37;4.23;;;3.83;;
6983;SDS011;3532;51.118;7.210;2023-07-16T13:37:03;4.00;;;3.40;;
6983;SDS011;3532;51.118;7.210;2023-07-16T13:39:28;5.73;;;4.00;;
6983;SDS011;3532;51.118;7.210;2023-07-16T13:41:54;5.30;;;3.73;;
6983;SDS011;3532;51.118;7.210;2023-07-16T13:44:19;4.57;;;3.80;;
6983;SDS011;3532;51.118;7.210;2023-07-16T13:46:44;6.10;;;4.33;;
6983;SDS011;3532;51.118;7.210;2023-07-16T13:49:10;12.23;;;3.83;;
6983;SDS011;3532;51.118;7.210;2023-07-16T13:51:35;5.20;;;4.03;;
6983;SDS011;3532;51.118;7.210;2023-07-16T13:54:00;7.17;;;3.80;;
6983;SDS011;3532;51.118;7.210;2023-07-16T13:56:25;5.00;;;3.57;;
6983;SDS011;3532;51.118;7.210;2023-07-16T13:58:51;5.43;;;3.87;;
6983;SDS011;3532;51.118;7.210;2023-07-16T14:01:16;4.67;;;3.63;;
6983;SDS011;3532;51.118;7.210;2023-07-16T14:03:43;3.97;;;3.40;;
6983;SDS011;3532;51.118;7.210;2023-07-16T14:06:08;4.83;;;3.67;;
6983;SDS011;3532;51.118;7.210;2023-07-16T14:08:33;5.90;;;3.60;;
6983;SDS011;3532;51.118;7.210;2023-07-16T14:11:00;6.03;;;4.03;;
6983;SDS011;3532;51.118;7.210;2023-07-16T14:13:26;5.00;;;4.10;;
6983;SDS011;3532;51.118;7.210;2023-07-16T14:15:51;6.20;;;4.90;;
6983;SDS011;3532;51.118;7.210;2023-07-16T14:18:16;6.07;;;3.60;;
6983;SDS011;3532;51.118;7.210;2023-07-16T14:20:42;5.30;;;3.73;;
6983;SDS011;3532;51.118;7.210;2023-07-16T14:23:07;4.77;;;3.77;;
6983;SDS011;3532;51.118;7.210;2023-07-16T14:25:33;5.33;;;3.53;;
6983;SDS011;3532;51.118;7.210;2023-07-16T14:27:58;6.50;;;4.23;;
6983;SDS011;3532;51.118;7.210;2023-07-16T14:30:23;5.53;;;3.93;;
6983;SDS011;3532;51.118;7.210;2023-07-16T14:32:49;8.40;;;3.80;;
6983;SDS011;3532;51.118;7.210;2023-07-16T14:35:14;4.10;;;3.67;;
6983;SDS011;3532;51.118;7.210;2023-07-16T14:37:40;5.03;;;4.00;;
6983;SDS011;3532;51.118;7.210;2023-07-16T14:40:06;6.30;;;3.83;;
6983;SDS011;3532;51.118;7.210;2023-07-16T14:42:33;5.40;;;4.53;;
6983;SDS011;3532;51.118;7.210;2023-07-16T14:44:59;4.57;;;3.73;;
6983;SDS011;3532;51.118;7.210;2023-07-16T14:47:24;4.80;;;4.07;;
6983;SDS011;3532;51.118;7.210;2023-07-16T14:49:49;5.40;;;3.50;;
6983;SDS011;3532;51.118;7.210;2023-07-16T14:52:15;6.13;;;3.77;;
6983;SDS011;3532;51.118;7.210;2023-07-16T14:54:40;4.67;;;3.70;;
6983;SDS011;3532;51.118;7.210;2023-07-16T14:57:06;6.80;;;3.57;;
6983;SDS011;3532;51.118;7.210;2023-07-16T14:59:31;5.43;;;3.20;;
6983;SDS011;3532;51.118;7.210;2023-07-16T15:01:56;5.93;;;4.03;;
6983;SDS011;3532;51.118;7.210;2023-07-16T15:04:22;5.03;;;3.73;;
6983;SDS011;3532;51.118;7.210;2023-07-16T15:06:47;5.13;;;3.90;;
6983;SDS011;3532;51.118;7.210;2023-07-16T15:09:13;4.67;;;3.30;;
6983;SDS011;3532;51.118;7.210;2023-07-16T15:11:39;4.30;;;3.90;;
6983;SDS011;3532;51.118;7.210;2023-07-16T15:14:04;5.20;;;3.60;;